<?xml version="1.0" encoding="UTF-8" standalone="no" ?>
<gpx xmlns="http://www.topografix.com/GPX/1/1" creator="MapSource 6.15.5" version="1.1" xmlns:xsi="http://www.w3.org/2001/XMLSchema-instance" xsi:schemaLocation="http://www.topografix.com/GPX/1/1 http://www.topografix.com/GPX/1/1/gpx.xsd">

  <metadata>
    <link href="http://www.garmin.com">
      <text>Garmin International</text>
    </link>
    <time>2013-12-30T16:50:00Z</time>
    <bounds maxlat="51.9112998" maxlon="7.3169109" minlat="51.8628956" minlon="7.1871893"/>
  </metadata>

  <wpt lat="51.8689442" lon="7.3091698">
    <time>2013-12-30T16:35:14Z</time>
    <name>Cafe Karthaus</name>
    <cmt>Karthaus und Weddern</cmt>
    <desc>Karthaus und Weddern</desc>
    <sym>Custom 0</sym>
    <extensions>
      <gpxx:WaypointExtension xmlns:gpxx="http://www.garmin.com/xmlschemas/GpxExtensions/v3">
        <gpxx:DisplayMode>SymbolAndName</gpxx:DisplayMode>
      </gpxx:WaypointExtension>
    </extensions>
  </wpt>

  <wpt lat="51.8779363" lon="7.2583540">
    <time>2013-12-30T16:42:17Z</time>
    <name>Galloways</name>
    <cmt>Welte</cmt>
    <desc>Welte</desc>
    <sym>Custom 0</sym>
    <extensions>
      <gpxx:WaypointExtension xmlns:gpxx="http://www.garmin.com/xmlschemas/GpxExtensions/v3">
        <gpxx:DisplayMode>SymbolAndName</gpxx:DisplayMode>
      </gpxx:WaypointExtension>
    </extensions>
  </wpt>

  <wpt lat="51.8737252" lon="7.3145106">
    <time>2013-12-30T16:35:49Z</time>
    <name>Klosterkirche</name>
    <cmt>Weddern 16</cmt>
    <desc>Weddern 16</desc>
    <sym>Custom 0</sym>
    <extensions>
      <gpxx:WaypointExtension xmlns:gpxx="http://www.garmin.com/xmlschemas/GpxExtensions/v3">
        <gpxx:DisplayMode>SymbolAndName</gpxx:DisplayMode>
      </gpxx:WaypointExtension>
    </extensions>
  </wpt>

  <wpt lat="51.8788393" lon="7.2907217">
    <time>2013-12-30T16:38:05Z</time>
    <name>Schutzhütte</name>
    <cmt>Straße</cmt>
    <desc>Straße</desc>
    <sym>Custom 0</sym>
    <extensions>
      <gpxx:WaypointExtension xmlns:gpxx="http://www.garmin.com/xmlschemas/GpxExtensions/v3">
        <gpxx:DisplayMode>SymbolAndName</gpxx:DisplayMode>
      </gpxx:WaypointExtension>
    </extensions>
  </wpt>

  <trk>
    <name>Weg Nr. 2 Karthaus</name>
    <extensions>
      <gpxx:TrackExtension xmlns:gpxx="http://www.garmin.com/xmlschemas/GpxExtensions/v3">
        <gpxx:DisplayColor>Yellow</gpxx:DisplayColor>
      </gpxx:TrackExtension>
    </extensions>
    <trkseg>
      <trkpt lat="51.8926851" lon="7.1871893">
        <ele>106.3630371</ele>
        <time>2013-10-22T08:25:22Z</time>
      </trkpt>
      <trkpt lat="51.8926722" lon="7.1872588">
        <ele>104.4404297</ele>
        <time>2013-10-22T08:25:36Z</time>
      </trkpt>
      <trkpt lat="51.8926756" lon="7.1872568">
        <ele>101.0756836</ele>
        <time>2013-10-22T08:25:40Z</time>
      </trkpt>
      <trkpt lat="51.8926677" lon="7.1872632">
        <ele>100.5950928</ele>
        <time>2013-10-22T08:25:42Z</time>
      </trkpt>
      <trkpt lat="51.8926626" lon="7.1872753">
        <ele>98.1918945</ele>
        <time>2013-10-22T08:25:46Z</time>
      </trkpt>
      <trkpt lat="51.8926977" lon="7.1875290">
        <ele>94.8271484</ele>
        <time>2013-10-22T08:25:54Z</time>
      </trkpt>
      <trkpt lat="51.8927537" lon="7.1876900">
        <ele>91.4625244</ele>
        <time>2013-10-22T08:26:00Z</time>
      </trkpt>
      <trkpt lat="51.8927655" lon="7.1877270">
        <ele>90.9819336</ele>
        <time>2013-10-22T08:26:01Z</time>
      </trkpt>
      <trkpt lat="51.8928781" lon="7.1878297">
        <ele>87.6171875</ele>
        <time>2013-10-22T08:26:08Z</time>
      </trkpt>
      <trkpt lat="51.8931889" lon="7.1880189">
        <ele>83.2913818</ele>
        <time>2013-10-22T08:26:18Z</time>
      </trkpt>
      <trkpt lat="51.8932216" lon="7.1880301">
        <ele>83.7719727</ele>
        <time>2013-10-22T08:26:19Z</time>
      </trkpt>
      <trkpt lat="51.8937652" lon="7.1882638">
        <ele>80.8881836</ele>
        <time>2013-10-22T08:26:35Z</time>
      </trkpt>
      <trkpt lat="51.8938634" lon="7.1883206">
        <ele>79.9266357</ele>
        <time>2013-10-22T08:26:38Z</time>
      </trkpt>
      <trkpt lat="51.8939994" lon="7.1887989">
        <ele>78.0040283</ele>
        <time>2013-10-22T08:26:48Z</time>
      </trkpt>
      <trkpt lat="51.8942295" lon="7.1892403">
        <ele>75.6008301</ele>
        <time>2013-10-22T08:26:57Z</time>
      </trkpt>
      <trkpt lat="51.8946415" lon="7.1901449">
        <ele>73.6782227</ele>
        <time>2013-10-22T08:27:16Z</time>
      </trkpt>
      <trkpt lat="51.8950994" lon="7.1910315">
        <ele>75.1202393</ele>
        <time>2013-10-22T08:27:35Z</time>
      </trkpt>
      <trkpt lat="51.8956066" lon="7.1920711">
        <ele>76.0814209</ele>
        <time>2013-10-22T08:27:58Z</time>
      </trkpt>
      <trkpt lat="51.8959958" lon="7.1927977">
        <ele>77.0428467</ele>
        <time>2013-10-22T08:28:15Z</time>
      </trkpt>
      <trkpt lat="51.8960777" lon="7.1930960">
        <ele>77.5234375</ele>
        <time>2013-10-22T08:28:27Z</time>
      </trkpt>
      <trkpt lat="51.8962066" lon="7.1933587">
        <ele>77.5234375</ele>
        <time>2013-10-22T08:29:00Z</time>
      </trkpt>
      <trkpt lat="51.8966605" lon="7.1938966">
        <ele>78.4847412</ele>
        <time>2013-10-22T08:29:16Z</time>
      </trkpt>
      <trkpt lat="51.8972737" lon="7.1947078">
        <ele>78.9654541</ele>
        <time>2013-10-22T08:29:38Z</time>
      </trkpt>
      <trkpt lat="51.8978280" lon="7.1954870">
        <ele>79.4460449</ele>
        <time>2013-10-22T08:29:59Z</time>
      </trkpt>
      <trkpt lat="51.8982578" lon="7.1959278">
        <ele>79.9266357</ele>
        <time>2013-10-22T08:30:17Z</time>
      </trkpt>
      <trkpt lat="51.8987666" lon="7.1964478">
        <ele>79.4460449</ele>
        <time>2013-10-22T08:30:33Z</time>
      </trkpt>
      <trkpt lat="51.8991085" lon="7.1967196">
        <ele>78.9654541</ele>
        <time>2013-10-22T08:30:44Z</time>
      </trkpt>
      <trkpt lat="51.8991556" lon="7.1968719">
        <ele>78.9654541</ele>
        <time>2013-10-22T08:30:48Z</time>
      </trkpt>
      <trkpt lat="51.8990415" lon="7.1978567">
        <ele>80.4074707</ele>
        <time>2013-10-22T08:31:06Z</time>
      </trkpt>
      <trkpt lat="51.8988897" lon="7.1990664">
        <ele>81.8493652</ele>
        <time>2013-10-22T08:31:28Z</time>
      </trkpt>
      <trkpt lat="51.8985357" lon="7.1994781">
        <ele>83.7719727</ele>
        <time>2013-10-22T08:31:44Z</time>
      </trkpt>
      <trkpt lat="51.8981319" lon="7.1997325">
        <ele>86.1752930</ele>
        <time>2013-10-22T08:32:01Z</time>
      </trkpt>
      <trkpt lat="51.8982197" lon="7.2004440">
        <ele>86.6560059</ele>
        <time>2013-10-22T08:32:16Z</time>
      </trkpt>
      <trkpt lat="51.8982776" lon="7.2009703">
        <ele>84.2526855</ele>
        <time>2013-10-22T08:32:24Z</time>
      </trkpt>
      <trkpt lat="51.8982840" lon="7.2010529">
        <ele>83.7719727</ele>
        <time>2013-10-22T08:32:25Z</time>
      </trkpt>
      <trkpt lat="51.8985656" lon="7.2015867">
        <ele>83.2913818</ele>
        <time>2013-10-22T08:32:31Z</time>
      </trkpt>
      <trkpt lat="51.8994199" lon="7.2027027">
        <ele>80.8881836</ele>
        <time>2013-10-22T08:32:50Z</time>
      </trkpt>
      <trkpt lat="51.9002486" lon="7.2037848">
        <ele>80.8881836</ele>
        <time>2013-10-22T08:33:16Z</time>
      </trkpt>
      <trkpt lat="51.9005787" lon="7.2044579">
        <ele>81.3687744</ele>
        <time>2013-10-22T08:33:30Z</time>
      </trkpt>
      <trkpt lat="51.9008559" lon="7.2051970">
        <ele>83.2913818</ele>
        <time>2013-10-22T08:33:44Z</time>
      </trkpt>
      <trkpt lat="51.9013813" lon="7.2065982">
        <ele>85.2139893</ele>
        <time>2013-10-22T08:34:13Z</time>
      </trkpt>
      <trkpt lat="51.9017445" lon="7.2075666">
        <ele>86.6560059</ele>
        <time>2013-10-22T08:34:33Z</time>
      </trkpt>
      <trkpt lat="51.9020689" lon="7.2084314">
        <ele>87.1365967</ele>
        <time>2013-10-22T08:34:52Z</time>
      </trkpt>
      <trkpt lat="51.9025097" lon="7.2096071">
        <ele>90.0206299</ele>
        <time>2013-10-22T08:35:17Z</time>
      </trkpt>
      <trkpt lat="51.9029467" lon="7.2107723">
        <ele>93.3851318</ele>
        <time>2013-10-22T08:35:41Z</time>
      </trkpt>
      <trkpt lat="51.9034647" lon="7.2121347">
        <ele>92.4239502</ele>
        <time>2013-10-22T08:36:03Z</time>
      </trkpt>
      <trkpt lat="51.9040724" lon="7.2137317">
        <ele>90.0206299</ele>
        <time>2013-10-22T08:36:26Z</time>
      </trkpt>
      <trkpt lat="51.9048093" lon="7.2156685">
        <ele>88.0980225</ele>
        <time>2013-10-22T08:36:54Z</time>
      </trkpt>
      <trkpt lat="51.9053579" lon="7.2171101">
        <ele>87.1365967</ele>
        <time>2013-10-22T08:37:16Z</time>
      </trkpt>
      <trkpt lat="51.9059804" lon="7.2187459">
        <ele>85.2139893</ele>
        <time>2013-10-22T08:37:39Z</time>
      </trkpt>
      <trkpt lat="51.9064207" lon="7.2199028">
        <ele>84.2526855</ele>
        <time>2013-10-22T08:37:56Z</time>
      </trkpt>
      <trkpt lat="51.9067605" lon="7.2206282">
        <ele>84.7333984</ele>
        <time>2013-10-22T08:38:11Z</time>
      </trkpt>
      <trkpt lat="51.9073237" lon="7.2211004">
        <ele>83.2913818</ele>
        <time>2013-10-22T08:38:26Z</time>
      </trkpt>
      <trkpt lat="51.9075359" lon="7.2212785">
        <ele>84.2526855</ele>
        <time>2013-10-22T08:38:37Z</time>
      </trkpt>
      <trkpt lat="51.9075359" lon="7.2212785">
        <ele>84.2526855</ele>
        <time>2013-10-22T08:38:47Z</time>
      </trkpt>
      <trkpt lat="51.9077168" lon="7.2214302">
        <ele>84.2526855</ele>
        <time>2013-10-22T08:38:52Z</time>
      </trkpt>
      <trkpt lat="51.9083146" lon="7.2219316">
        <ele>85.6945801</ele>
        <time>2013-10-22T08:39:11Z</time>
      </trkpt>
      <trkpt lat="51.9091724" lon="7.2226509">
        <ele>87.1365967</ele>
        <time>2013-10-22T08:39:31Z</time>
      </trkpt>
      <trkpt lat="51.9093102" lon="7.2230707">
        <ele>87.6171875</ele>
        <time>2013-10-22T08:39:42Z</time>
      </trkpt>
      <trkpt lat="51.9092226" lon="7.2245384">
        <ele>85.6945801</ele>
        <time>2013-10-22T08:40:04Z</time>
      </trkpt>
      <trkpt lat="51.9092153" lon="7.2259835">
        <ele>86.1752930</ele>
        <time>2013-10-22T08:40:25Z</time>
      </trkpt>
      <trkpt lat="51.9094008" lon="7.2271880">
        <ele>86.6560059</ele>
        <time>2013-10-22T08:40:44Z</time>
      </trkpt>
      <trkpt lat="51.9095308" lon="7.2282270">
        <ele>88.0980225</ele>
        <time>2013-10-22T08:41:02Z</time>
      </trkpt>
      <trkpt lat="51.9097129" lon="7.2293304">
        <ele>89.0593262</ele>
        <time>2013-10-22T08:41:20Z</time>
      </trkpt>
      <trkpt lat="51.9099668" lon="7.2306592">
        <ele>90.5013428</ele>
        <time>2013-10-22T08:41:44Z</time>
      </trkpt>
      <trkpt lat="51.9101825" lon="7.2317891">
        <ele>90.5013428</ele>
        <time>2013-10-22T08:42:04Z</time>
      </trkpt>
      <trkpt lat="51.9102980" lon="7.2323932">
        <ele>91.4625244</ele>
        <time>2013-10-22T08:42:16Z</time>
      </trkpt>
      <trkpt lat="51.9104316" lon="7.2331465">
        <ele>92.4239502</ele>
        <time>2013-10-22T08:42:30Z</time>
      </trkpt>
      <trkpt lat="51.9105875" lon="7.2340344">
        <ele>93.8658447</ele>
        <time>2013-10-22T08:42:47Z</time>
      </trkpt>
      <trkpt lat="51.9107557" lon="7.2349927">
        <ele>93.8658447</ele>
        <time>2013-10-22T08:43:05Z</time>
      </trkpt>
      <trkpt lat="51.9108940" lon="7.2357804">
        <ele>94.8271484</ele>
        <time>2013-10-22T08:43:20Z</time>
      </trkpt>
      <trkpt lat="51.9110142" lon="7.2364652">
        <ele>95.7884521</ele>
        <time>2013-10-22T08:43:33Z</time>
      </trkpt>
      <trkpt lat="51.9111561" lon="7.2372734">
        <ele>96.7498779</ele>
        <time>2013-10-22T08:43:49Z</time>
      </trkpt>
      <trkpt lat="51.9112892" lon="7.2380312">
        <ele>97.7111816</ele>
        <time>2013-10-22T08:44:05Z</time>
      </trkpt>
      <trkpt lat="51.9112998" lon="7.2380916">
        <ele>96.7498779</ele>
        <time>2013-10-22T08:44:07Z</time>
      </trkpt>
      <trkpt lat="51.9111398" lon="7.2381787">
        <ele>94.8271484</ele>
        <time>2013-10-22T08:44:12Z</time>
      </trkpt>
      <trkpt lat="51.9105076" lon="7.2384784">
        <ele>91.9432373</ele>
        <time>2013-10-22T08:44:27Z</time>
      </trkpt>
      <trkpt lat="51.9096500" lon="7.2388850">
        <ele>88.5787354</ele>
        <time>2013-10-22T08:44:43Z</time>
      </trkpt>
      <trkpt lat="51.9085112" lon="7.2394248">
        <ele>86.1752930</ele>
        <time>2013-10-22T08:45:05Z</time>
      </trkpt>
      <trkpt lat="51.9075675" lon="7.2398723">
        <ele>85.6945801</ele>
        <time>2013-10-22T08:45:25Z</time>
      </trkpt>
      <trkpt lat="51.9066295" lon="7.2403170">
        <ele>84.2526855</ele>
        <time>2013-10-22T08:45:46Z</time>
      </trkpt>
      <trkpt lat="51.9053240" lon="7.2408946">
        <ele>83.2913818</ele>
        <time>2013-10-22T08:46:16Z</time>
      </trkpt>
      <trkpt lat="51.9048752" lon="7.2409773">
        <ele>83.2913818</ele>
        <time>2013-10-22T08:46:26Z</time>
      </trkpt>
      <trkpt lat="51.9046807" lon="7.2408549">
        <ele>82.3300781</ele>
        <time>2013-10-22T08:46:31Z</time>
      </trkpt>
      <trkpt lat="51.9043171" lon="7.2410952">
        <ele>81.3687744</ele>
        <time>2013-10-22T08:46:40Z</time>
      </trkpt>
      <trkpt lat="51.9037081" lon="7.2422192">
        <ele>81.3687744</ele>
        <time>2013-10-22T08:47:01Z</time>
      </trkpt>
      <trkpt lat="51.9036166" lon="7.2423783">
        <ele>80.8881836</ele>
        <time>2013-10-22T08:47:04Z</time>
      </trkpt>
      <trkpt lat="51.9035366" lon="7.2426070">
        <ele>81.3687744</ele>
        <time>2013-10-22T08:47:08Z</time>
      </trkpt>
      <trkpt lat="51.9035145" lon="7.2427716">
        <ele>80.4074707</ele>
        <time>2013-10-22T08:47:11Z</time>
      </trkpt>
      <trkpt lat="51.9026756" lon="7.2433805">
        <ele>80.4074707</ele>
        <time>2013-10-22T08:47:25Z</time>
      </trkpt>
      <trkpt lat="51.9025537" lon="7.2434764">
        <ele>80.4074707</ele>
        <time>2013-10-22T08:47:37Z</time>
      </trkpt>
      <trkpt lat="51.9022350" lon="7.2437269">
        <ele>80.4074707</ele>
        <time>2013-10-22T08:47:47Z</time>
      </trkpt>
      <trkpt lat="51.9017143" lon="7.2438887">
        <ele>80.8881836</ele>
        <time>2013-10-22T08:48:00Z</time>
      </trkpt>
      <trkpt lat="51.9015169" lon="7.2446251">
        <ele>80.8881836</ele>
        <time>2013-10-22T08:48:07Z</time>
      </trkpt>
      <trkpt lat="51.9014664" lon="7.2443722">
        <ele>80.8881836</ele>
        <time>2013-10-22T08:48:13Z</time>
      </trkpt>
      <trkpt lat="51.9016061" lon="7.2449637">
        <ele>80.4074707</ele>
        <time>2013-10-22T08:48:29Z</time>
      </trkpt>
      <trkpt lat="51.9016473" lon="7.2451202">
        <ele>80.8881836</ele>
        <time>2013-10-22T08:48:48Z</time>
      </trkpt>
      <trkpt lat="51.9016792" lon="7.2452417">
        <ele>81.3687744</ele>
        <time>2013-10-22T08:49:02Z</time>
      </trkpt>
      <trkpt lat="51.9016011" lon="7.2449447">
        <ele>80.8881836</ele>
        <time>2013-10-22T08:49:09Z</time>
      </trkpt>
      <trkpt lat="51.9015156" lon="7.2446182">
        <ele>81.3687744</ele>
        <time>2013-10-22T08:49:16Z</time>
      </trkpt>
      <trkpt lat="51.9013548" lon="7.2447661">
        <ele>80.4074707</ele>
        <time>2013-10-22T08:49:21Z</time>
      </trkpt>
      <trkpt lat="51.9005988" lon="7.2454236">
        <ele>78.0040283</ele>
        <time>2013-10-22T08:49:42Z</time>
      </trkpt>
      <trkpt lat="51.9003342" lon="7.2458368">
        <ele>78.4847412</ele>
        <time>2013-10-22T08:49:51Z</time>
      </trkpt>
      <trkpt lat="51.9002724" lon="7.2462379">
        <ele>78.4847412</ele>
        <time>2013-10-22T08:49:57Z</time>
      </trkpt>
      <trkpt lat="51.9004240" lon="7.2479559">
        <ele>78.4847412</ele>
        <time>2013-10-22T08:50:24Z</time>
      </trkpt>
      <trkpt lat="51.9006927" lon="7.2495658">
        <ele>81.8493652</ele>
        <time>2013-10-22T08:50:52Z</time>
      </trkpt>
      <trkpt lat="51.9010000" lon="7.2510753">
        <ele>80.4074707</ele>
        <time>2013-10-22T08:51:18Z</time>
      </trkpt>
      <trkpt lat="51.9011298" lon="7.2527467">
        <ele>78.9654541</ele>
        <time>2013-10-22T08:51:41Z</time>
      </trkpt>
      <trkpt lat="51.9008361" lon="7.2545453">
        <ele>78.4847412</ele>
        <time>2013-10-22T08:52:09Z</time>
      </trkpt>
      <trkpt lat="51.9005923" lon="7.2545002">
        <ele>77.5234375</ele>
        <time>2013-10-22T08:52:14Z</time>
      </trkpt>
      <trkpt lat="51.8996552" lon="7.2541813">
        <ele>77.0428467</ele>
        <time>2013-10-22T08:52:36Z</time>
      </trkpt>
      <trkpt lat="51.8983802" lon="7.2537473">
        <ele>76.0814209</ele>
        <time>2013-10-22T08:53:06Z</time>
      </trkpt>
      <trkpt lat="51.8972597" lon="7.2533658">
        <ele>76.0814209</ele>
        <time>2013-10-22T08:53:33Z</time>
      </trkpt>
      <trkpt lat="51.8962760" lon="7.2530595">
        <ele>76.0814209</ele>
        <time>2013-10-22T08:53:58Z</time>
      </trkpt>
      <trkpt lat="51.8959282" lon="7.2529600">
        <ele>77.0428467</ele>
        <time>2013-10-22T08:54:09Z</time>
      </trkpt>
      <trkpt lat="51.8958950" lon="7.2529507">
        <ele>76.5621338</ele>
        <time>2013-10-22T08:54:14Z</time>
      </trkpt>
      <trkpt lat="51.8957314" lon="7.2539157">
        <ele>75.6008301</ele>
        <time>2013-10-22T08:54:29Z</time>
      </trkpt>
      <trkpt lat="51.8955344" lon="7.2550778">
        <ele>75.1202393</ele>
        <time>2013-10-22T08:54:46Z</time>
      </trkpt>
      <trkpt lat="51.8952184" lon="7.2568963">
        <ele>75.1202393</ele>
        <time>2013-10-22T08:55:14Z</time>
      </trkpt>
      <trkpt lat="51.8950773" lon="7.2583129">
        <ele>76.0814209</ele>
        <time>2013-10-22T08:55:36Z</time>
      </trkpt>
      <trkpt lat="51.8945155" lon="7.2582417">
        <ele>75.6008301</ele>
        <time>2013-10-22T08:55:49Z</time>
      </trkpt>
      <trkpt lat="51.8936773" lon="7.2585531">
        <ele>76.5621338</ele>
        <time>2013-10-22T08:56:10Z</time>
      </trkpt>
      <trkpt lat="51.8925142" lon="7.2590621">
        <ele>78.0040283</ele>
        <time>2013-10-22T08:56:42Z</time>
      </trkpt>
      <trkpt lat="51.8916472" lon="7.2593746">
        <ele>76.0814209</ele>
        <time>2013-10-22T08:57:03Z</time>
      </trkpt>
      <trkpt lat="51.8905561" lon="7.2596874">
        <ele>74.6395264</ele>
        <time>2013-10-22T08:57:26Z</time>
      </trkpt>
      <trkpt lat="51.8905172" lon="7.2596984">
        <ele>75.1202393</ele>
        <time>2013-10-22T08:57:27Z</time>
      </trkpt>
      <trkpt lat="51.8903484" lon="7.2601046">
        <ele>74.6395264</ele>
        <time>2013-10-22T08:57:34Z</time>
      </trkpt>
      <trkpt lat="51.8903310" lon="7.2602267">
        <ele>74.1588135</ele>
        <time>2013-10-22T08:57:36Z</time>
      </trkpt>
      <trkpt lat="51.8900041" lon="7.2614299">
        <ele>73.6782227</ele>
        <time>2013-10-22T08:57:54Z</time>
      </trkpt>
      <trkpt lat="51.8899770" lon="7.2615563">
        <ele>74.1588135</ele>
        <time>2013-10-22T08:57:56Z</time>
      </trkpt>
      <trkpt lat="51.8899542" lon="7.2620912">
        <ele>74.1588135</ele>
        <time>2013-10-22T08:58:04Z</time>
      </trkpt>
      <trkpt lat="51.8899425" lon="7.2624211">
        <ele>74.1588135</ele>
        <time>2013-10-22T08:58:09Z</time>
      </trkpt>
      <trkpt lat="51.8899352" lon="7.2628171">
        <ele>73.1976318</ele>
        <time>2013-10-22T08:58:15Z</time>
      </trkpt>
      <trkpt lat="51.8899576" lon="7.2629769">
        <ele>73.1976318</ele>
        <time>2013-10-22T08:58:19Z</time>
      </trkpt>
      <trkpt lat="51.8890466" lon="7.2639085">
        <ele>72.7169189</ele>
        <time>2013-10-22T08:58:42Z</time>
      </trkpt>
      <trkpt lat="51.8879469" lon="7.2646257">
        <ele>72.2362061</ele>
        <time>2013-10-22T08:59:10Z</time>
      </trkpt>
      <trkpt lat="51.8873393" lon="7.2650219">
        <ele>71.7554932</ele>
        <time>2013-10-22T08:59:25Z</time>
      </trkpt>
      <trkpt lat="51.8865990" lon="7.2652964">
        <ele>72.2362061</ele>
        <time>2013-10-22T08:59:43Z</time>
      </trkpt>
      <trkpt lat="51.8857194" lon="7.2648334">
        <ele>72.7169189</ele>
        <time>2013-10-22T09:00:06Z</time>
      </trkpt>
      <trkpt lat="51.8856542" lon="7.2647682">
        <ele>73.1976318</ele>
        <time>2013-10-22T09:00:08Z</time>
      </trkpt>
      <trkpt lat="51.8850009" lon="7.2642565">
        <ele>73.6782227</ele>
        <time>2013-10-22T09:00:26Z</time>
      </trkpt>
      <trkpt lat="51.8839546" lon="7.2636005">
        <ele>74.6395264</ele>
        <time>2013-10-22T09:00:54Z</time>
      </trkpt>
      <trkpt lat="51.8829086" lon="7.2629445">
        <ele>75.1202393</ele>
        <time>2013-10-22T09:01:22Z</time>
      </trkpt>
      <trkpt lat="51.8826413" lon="7.2632421">
        <ele>73.6782227</ele>
        <time>2013-10-22T09:01:30Z</time>
      </trkpt>
      <trkpt lat="51.8819644" lon="7.2644360">
        <ele>73.6782227</ele>
        <time>2013-10-22T09:01:54Z</time>
      </trkpt>
      <trkpt lat="51.8817764" lon="7.2647974">
        <ele>73.6782227</ele>
        <time>2013-10-22T09:02:02Z</time>
      </trkpt>
      <trkpt lat="51.8814700" lon="7.2662116">
        <ele>73.1976318</ele>
        <time>2013-10-22T09:02:25Z</time>
      </trkpt>
      <trkpt lat="51.8812625" lon="7.2678292">
        <ele>73.6782227</ele>
        <time>2013-10-22T09:02:49Z</time>
      </trkpt>
      <trkpt lat="51.8810007" lon="7.2679414">
        <ele>73.1976318</ele>
        <time>2013-10-22T09:02:56Z</time>
      </trkpt>
      <trkpt lat="51.8800443" lon="7.2672409">
        <ele>71.7554932</ele>
        <time>2013-10-22T09:03:20Z</time>
      </trkpt>
      <trkpt lat="51.8799589" lon="7.2671769">
        <ele>72.2362061</ele>
        <time>2013-10-22T09:03:22Z</time>
      </trkpt>
      <trkpt lat="51.8797097" lon="7.2672359">
        <ele>71.2749023</ele>
        <time>2013-10-22T09:03:28Z</time>
      </trkpt>
      <trkpt lat="51.8796236" lon="7.2672673">
        <ele>71.7554932</ele>
        <time>2013-10-22T09:03:30Z</time>
      </trkpt>
      <trkpt lat="51.8794575" lon="7.2673270">
        <ele>72.7169189</ele>
        <time>2013-10-22T09:03:34Z</time>
      </trkpt>
      <trkpt lat="51.8789950" lon="7.2672560">
        <ele>72.2362061</ele>
        <time>2013-10-22T09:03:46Z</time>
      </trkpt>
      <trkpt lat="51.8788218" lon="7.2675225">
        <ele>71.7554932</ele>
        <time>2013-10-22T09:03:53Z</time>
      </trkpt>
      <trkpt lat="51.8786605" lon="7.2680988">
        <ele>71.7554932</ele>
        <time>2013-10-22T09:04:02Z</time>
      </trkpt>
      <trkpt lat="51.8784420" lon="7.2682984">
        <ele>71.2749023</ele>
        <time>2013-10-22T09:04:09Z</time>
      </trkpt>
      <trkpt lat="51.8774116" lon="7.2682836">
        <ele>71.7554932</ele>
        <time>2013-10-22T09:04:34Z</time>
      </trkpt>
      <trkpt lat="51.8772639" lon="7.2683083">
        <ele>71.2749023</ele>
        <time>2013-10-22T09:04:38Z</time>
      </trkpt>
      <trkpt lat="51.8771521" lon="7.2692844">
        <ele>71.2749023</ele>
        <time>2013-10-22T09:04:52Z</time>
      </trkpt>
      <trkpt lat="51.8771077" lon="7.2710598">
        <ele>70.3134766</ele>
        <time>2013-10-22T09:05:17Z</time>
      </trkpt>
      <trkpt lat="51.8770634" lon="7.2732328">
        <ele>70.7941895</ele>
        <time>2013-10-22T09:05:49Z</time>
      </trkpt>
      <trkpt lat="51.8771323" lon="7.2751009">
        <ele>70.7941895</ele>
        <time>2013-10-22T09:06:16Z</time>
      </trkpt>
      <trkpt lat="51.8772945" lon="7.2765383">
        <ele>72.2362061</ele>
        <time>2013-10-22T09:06:38Z</time>
      </trkpt>
      <trkpt lat="51.8775830" lon="7.2783488">
        <ele>71.7554932</ele>
        <time>2013-10-22T09:07:05Z</time>
      </trkpt>
      <trkpt lat="51.8781032" lon="7.2797931">
        <ele>70.3134766</ele>
        <time>2013-10-22T09:07:27Z</time>
      </trkpt>
      <trkpt lat="51.8783855" lon="7.2809746">
        <ele>69.3522949</ele>
        <time>2013-10-22T09:07:45Z</time>
      </trkpt>
      <trkpt lat="51.8782257" lon="7.2819245">
        <ele>69.3522949</ele>
        <time>2013-10-22T09:08:01Z</time>
      </trkpt>
      <trkpt lat="51.8778628" lon="7.2828335">
        <ele>69.3522949</ele>
        <time>2013-10-22T09:08:19Z</time>
      </trkpt>
      <trkpt lat="51.8777307" lon="7.2839648">
        <ele>70.3134766</ele>
        <time>2013-10-22T09:08:38Z</time>
      </trkpt>
      <trkpt lat="51.8776989" lon="7.2851461">
        <ele>71.7554932</ele>
        <time>2013-10-22T09:08:58Z</time>
      </trkpt>
      <trkpt lat="51.8779550" lon="7.2864802">
        <ele>72.2362061</ele>
        <time>2013-10-22T09:09:21Z</time>
      </trkpt>
      <trkpt lat="51.8783037" lon="7.2883556">
        <ele>73.6782227</ele>
        <time>2013-10-22T09:09:53Z</time>
      </trkpt>
      <trkpt lat="51.8785307" lon="7.2893485">
        <ele>73.1976318</ele>
        <time>2013-10-22T09:10:11Z</time>
      </trkpt>
      <trkpt lat="51.8788340" lon="7.2901828">
        <ele>74.1588135</ele>
        <time>2013-10-22T09:10:30Z</time>
      </trkpt>
      <trkpt lat="51.8788340" lon="7.2901828">
        <ele>74.1588135</ele>
        <time>2013-10-22T09:11:35Z</time>
      </trkpt>
      <trkpt lat="51.8788340" lon="7.2901828">
        <ele>73.6782227</ele>
        <time>2013-10-22T09:14:12Z</time>
      </trkpt>
      <trkpt lat="51.8788393" lon="7.2907214">
        <ele>73.6782227</ele>
        <time>2013-10-22T09:14:24Z</time>
      </trkpt>
      <trkpt lat="51.8784472" lon="7.2921761">
        <ele>73.1976318</ele>
        <time>2013-10-22T09:14:48Z</time>
      </trkpt>
      <trkpt lat="51.8778948" lon="7.2938079">
        <ele>73.1976318</ele>
        <time>2013-10-22T09:15:16Z</time>
      </trkpt>
      <trkpt lat="51.8778970" lon="7.2957121">
        <ele>71.7554932</ele>
        <time>2013-10-22T09:15:43Z</time>
      </trkpt>
      <trkpt lat="51.8779856" lon="7.2969238">
        <ele>70.7941895</ele>
        <time>2013-10-22T09:16:00Z</time>
      </trkpt>
      <trkpt lat="51.8779494" lon="7.2973598">
        <ele>70.7941895</ele>
        <time>2013-10-22T09:16:07Z</time>
      </trkpt>
      <trkpt lat="51.8776975" lon="7.2984735">
        <ele>70.3134766</ele>
        <time>2013-10-22T09:16:25Z</time>
      </trkpt>
      <trkpt lat="51.8775367" lon="7.2992932">
        <ele>69.3522949</ele>
        <time>2013-10-22T09:16:38Z</time>
      </trkpt>
      <trkpt lat="51.8776998" lon="7.3004363">
        <ele>68.8715820</ele>
        <time>2013-10-22T09:16:54Z</time>
      </trkpt>
      <trkpt lat="51.8778161" lon="7.3010325">
        <ele>68.8715820</ele>
        <time>2013-10-22T09:17:03Z</time>
      </trkpt>
      <trkpt lat="51.8779189" lon="7.3012673">
        <ele>68.8715820</ele>
        <time>2013-10-22T09:17:07Z</time>
      </trkpt>
      <trkpt lat="51.8785249" lon="7.3020269">
        <ele>68.8715820</ele>
        <time>2013-10-22T09:17:25Z</time>
      </trkpt>
      <trkpt lat="51.8792335" lon="7.3029329">
        <ele>68.8715820</ele>
        <time>2013-10-22T09:17:47Z</time>
      </trkpt>
      <trkpt lat="51.8798050" lon="7.3036549">
        <ele>69.3522949</ele>
        <time>2013-10-22T09:18:06Z</time>
      </trkpt>
      <trkpt lat="51.8807212" lon="7.3048656">
        <ele>68.8715820</ele>
        <time>2013-10-22T09:18:34Z</time>
      </trkpt>
      <trkpt lat="51.8815754" lon="7.3059489">
        <ele>67.9102783</ele>
        <time>2013-10-22T09:18:59Z</time>
      </trkpt>
      <trkpt lat="51.8825987" lon="7.3072695">
        <ele>66.4682617</ele>
        <time>2013-10-22T09:19:29Z</time>
      </trkpt>
      <trkpt lat="51.8827017" lon="7.3073921">
        <ele>66.9489746</ele>
        <time>2013-10-22T09:19:32Z</time>
      </trkpt>
      <trkpt lat="51.8830421" lon="7.3074371">
        <ele>66.9489746</ele>
        <time>2013-10-22T09:19:40Z</time>
      </trkpt>
      <trkpt lat="51.8839308" lon="7.3068677">
        <ele>66.9489746</ele>
        <time>2013-10-22T09:20:03Z</time>
      </trkpt>
      <trkpt lat="51.8842238" lon="7.3067853">
        <ele>66.9489746</ele>
        <time>2013-10-22T09:20:10Z</time>
      </trkpt>
      <trkpt lat="51.8843731" lon="7.3066971">
        <ele>67.4296875</ele>
        <time>2013-10-22T09:20:14Z</time>
      </trkpt>
      <trkpt lat="51.8846152" lon="7.3061631">
        <ele>67.9102783</ele>
        <time>2013-10-22T09:20:24Z</time>
      </trkpt>
      <trkpt lat="51.8846615" lon="7.3057712">
        <ele>67.4296875</ele>
        <time>2013-10-22T09:20:30Z</time>
      </trkpt>
      <trkpt lat="51.8848501" lon="7.3058763">
        <ele>67.9102783</ele>
        <time>2013-10-22T09:20:37Z</time>
      </trkpt>
      <trkpt lat="51.8848596" lon="7.3059387">
        <ele>67.4296875</ele>
        <time>2013-10-22T09:20:38Z</time>
      </trkpt>
      <trkpt lat="51.8849234" lon="7.3068357">
        <ele>68.3908691</ele>
        <time>2013-10-22T09:20:53Z</time>
      </trkpt>
      <trkpt lat="51.8848974" lon="7.3076904">
        <ele>68.3908691</ele>
        <time>2013-10-22T09:21:09Z</time>
      </trkpt>
      <trkpt lat="51.8848180" lon="7.3085498">
        <ele>68.8715820</ele>
        <time>2013-10-22T09:21:23Z</time>
      </trkpt>
      <trkpt lat="51.8849045" lon="7.3098903">
        <ele>70.7941895</ele>
        <time>2013-10-22T09:21:45Z</time>
      </trkpt>
      <trkpt lat="51.8849830" lon="7.3115011">
        <ele>71.2749023</ele>
        <time>2013-10-22T09:22:12Z</time>
      </trkpt>
      <trkpt lat="51.8850847" lon="7.3127263">
        <ele>72.2362061</ele>
        <time>2013-10-22T09:22:32Z</time>
      </trkpt>
      <trkpt lat="51.8848658" lon="7.3133326">
        <ele>71.7554932</ele>
        <time>2013-10-22T09:22:36Z</time>
      </trkpt>
      <trkpt lat="51.8848179" lon="7.3133484">
        <ele>70.3134766</ele>
        <time>2013-10-22T09:22:44Z</time>
      </trkpt>
      <trkpt lat="51.8840788" lon="7.3136481">
        <ele>71.2749023</ele>
        <time>2013-10-22T09:23:03Z</time>
      </trkpt>
      <trkpt lat="51.8840619" lon="7.3137154">
        <ele>71.2749023</ele>
        <time>2013-10-22T09:23:04Z</time>
      </trkpt>
      <trkpt lat="51.8839822" lon="7.3149205">
        <ele>71.2749023</ele>
        <time>2013-10-22T09:23:22Z</time>
      </trkpt>
      <trkpt lat="51.8841126" lon="7.3161915">
        <ele>71.2749023</ele>
        <time>2013-10-22T09:23:42Z</time>
      </trkpt>
      <trkpt lat="51.8841362" lon="7.3162937">
        <ele>69.8328857</ele>
        <time>2013-10-22T09:23:45Z</time>
      </trkpt>
      <trkpt lat="51.8841362" lon="7.3162937">
        <ele>70.3134766</ele>
        <time>2013-10-22T09:23:47Z</time>
      </trkpt>
      <trkpt lat="51.8829484" lon="7.3166852">
        <ele>68.3908691</ele>
        <time>2013-10-22T09:24:10Z</time>
      </trkpt>
      <trkpt lat="51.8822510" lon="7.3169109">
        <ele>68.3908691</ele>
        <time>2013-10-22T09:24:26Z</time>
      </trkpt>
      <trkpt lat="51.8820116" lon="7.3164960">
        <ele>68.8715820</ele>
        <time>2013-10-22T09:24:35Z</time>
      </trkpt>
      <trkpt lat="51.8816696" lon="7.3146328">
        <ele>68.3908691</ele>
        <time>2013-10-22T09:25:04Z</time>
      </trkpt>
      <trkpt lat="51.8814604" lon="7.3147069">
        <ele>68.3908691</ele>
        <time>2013-10-22T09:25:13Z</time>
      </trkpt>
      <trkpt lat="51.8809207" lon="7.3149212">
        <ele>66.9489746</ele>
        <time>2013-10-22T09:25:29Z</time>
      </trkpt>
      <trkpt lat="51.8796895" lon="7.3153207">
        <ele>66.9489746</ele>
        <time>2013-10-22T09:25:59Z</time>
      </trkpt>
      <trkpt lat="51.8787288" lon="7.3156138">
        <ele>65.9876709</ele>
        <time>2013-10-22T09:26:24Z</time>
      </trkpt>
      <trkpt lat="51.8776741" lon="7.3157812">
        <ele>66.4682617</ele>
        <time>2013-10-22T09:26:49Z</time>
      </trkpt>
      <trkpt lat="51.8769325" lon="7.3156948">
        <ele>67.4296875</ele>
        <time>2013-10-22T09:27:09Z</time>
      </trkpt>
      <trkpt lat="51.8768968" lon="7.3155351">
        <ele>67.9102783</ele>
        <time>2013-10-22T09:27:13Z</time>
      </trkpt>
      <trkpt lat="51.8769076" lon="7.3155042">
        <ele>67.4296875</ele>
        <time>2013-10-22T09:27:34Z</time>
      </trkpt>
      <trkpt lat="51.8768956" lon="7.3154938">
        <ele>67.9102783</ele>
        <time>2013-10-22T09:27:43Z</time>
      </trkpt>
      <trkpt lat="51.8766769" lon="7.3150055">
        <ele>66.9489746</ele>
        <time>2013-10-22T09:27:54Z</time>
      </trkpt>
      <trkpt lat="51.8763123" lon="7.3152979">
        <ele>65.9876709</ele>
        <time>2013-10-22T09:28:04Z</time>
      </trkpt>
      <trkpt lat="51.8758621" lon="7.3154752">
        <ele>66.4682617</ele>
        <time>2013-10-22T09:28:18Z</time>
      </trkpt>
      <trkpt lat="51.8756362" lon="7.3152456">
        <ele>67.4296875</ele>
        <time>2013-10-22T09:28:27Z</time>
      </trkpt>
      <trkpt lat="51.8753570" lon="7.3149591">
        <ele>67.4296875</ele>
        <time>2013-10-22T09:28:39Z</time>
      </trkpt>
      <trkpt lat="51.8750732" lon="7.3151225">
        <ele>67.4296875</ele>
        <time>2013-10-22T09:28:52Z</time>
      </trkpt>
      <trkpt lat="51.8746627" lon="7.3149073">
        <ele>67.9102783</ele>
        <time>2013-10-22T09:29:05Z</time>
      </trkpt>
      <trkpt lat="51.8741780" lon="7.3146740">
        <ele>67.9102783</ele>
        <time>2013-10-22T09:29:19Z</time>
      </trkpt>
      <trkpt lat="51.8734287" lon="7.3143104">
        <ele>68.3908691</ele>
        <time>2013-10-22T09:29:39Z</time>
      </trkpt>
      <trkpt lat="51.8728755" lon="7.3140452">
        <ele>68.3908691</ele>
        <time>2013-10-22T09:29:53Z</time>
      </trkpt>
      <trkpt lat="51.8728275" lon="7.3137228">
        <ele>68.8715820</ele>
        <time>2013-10-22T09:29:59Z</time>
      </trkpt>
      <trkpt lat="51.8732123" lon="7.3128408">
        <ele>67.9102783</ele>
        <time>2013-10-22T09:30:16Z</time>
      </trkpt>
      <trkpt lat="51.8733696" lon="7.3119748">
        <ele>67.9102783</ele>
        <time>2013-10-22T09:30:31Z</time>
      </trkpt>
      <trkpt lat="51.8736834" lon="7.3110493">
        <ele>67.9102783</ele>
        <time>2013-10-22T09:30:48Z</time>
      </trkpt>
      <trkpt lat="51.8737078" lon="7.3110151">
        <ele>67.9102783</ele>
        <time>2013-10-22T09:30:49Z</time>
      </trkpt>
      <trkpt lat="51.8734779" lon="7.3101494">
        <ele>68.8715820</ele>
        <time>2013-10-22T09:31:04Z</time>
      </trkpt>
      <trkpt lat="51.8732381" lon="7.3092471">
        <ele>68.8715820</ele>
        <time>2013-10-22T09:31:20Z</time>
      </trkpt>
      <trkpt lat="51.8730077" lon="7.3089875">
        <ele>68.3908691</ele>
        <time>2013-10-22T09:31:31Z</time>
      </trkpt>
      <trkpt lat="51.8724337" lon="7.3093491">
        <ele>69.3522949</ele>
        <time>2013-10-22T09:31:49Z</time>
      </trkpt>
      <trkpt lat="51.8717110" lon="7.3098035">
        <ele>69.8328857</ele>
        <time>2013-10-22T09:32:11Z</time>
      </trkpt>
      <trkpt lat="51.8712261" lon="7.3100778">
        <ele>68.8715820</ele>
        <time>2013-10-22T09:32:27Z</time>
      </trkpt>
      <trkpt lat="51.8708075" lon="7.3103110">
        <ele>69.8328857</ele>
        <time>2013-10-22T09:32:41Z</time>
      </trkpt>
      <trkpt lat="51.8706881" lon="7.3103649">
        <ele>70.3134766</ele>
        <time>2013-10-22T09:32:46Z</time>
      </trkpt>
      <trkpt lat="51.8704644" lon="7.3099238">
        <ele>70.3134766</ele>
        <time>2013-10-22T09:32:59Z</time>
      </trkpt>
      <trkpt lat="51.8701621" lon="7.3095410">
        <ele>71.2749023</ele>
        <time>2013-10-22T09:33:16Z</time>
      </trkpt>
      <trkpt lat="51.8701296" lon="7.3091429">
        <ele>71.7554932</ele>
        <time>2013-10-22T09:33:32Z</time>
      </trkpt>
      <trkpt lat="51.8701310" lon="7.3091522">
        <ele>71.7554932</ele>
        <time>2013-10-22T09:33:37Z</time>
      </trkpt>
      <trkpt lat="51.8700456" lon="7.3091771">
        <ele>71.7554932</ele>
        <time>2013-10-22T09:33:41Z</time>
      </trkpt>
      <trkpt lat="51.8696666" lon="7.3090761">
        <ele>71.7554932</ele>
        <time>2013-10-22T09:34:00Z</time>
      </trkpt>
      <trkpt lat="51.8694420" lon="7.3090016">
        <ele>71.7554932</ele>
        <time>2013-10-22T09:34:12Z</time>
      </trkpt>
      <trkpt lat="51.8691858" lon="7.3088615">
        <ele>71.2749023</ele>
        <time>2013-10-22T09:34:27Z</time>
      </trkpt>
      <trkpt lat="51.8691846" lon="7.3088102">
        <ele>71.7554932</ele>
        <time>2013-10-22T09:35:00Z</time>
      </trkpt>
      <trkpt lat="51.8692393" lon="7.3088102">
        <ele>72.2362061</ele>
        <time>2013-10-22T09:35:38Z</time>
      </trkpt>
      <trkpt lat="51.8692447" lon="7.3088126">
        <ele>75.1202393</ele>
        <time>2013-10-22T09:38:59Z</time>
      </trkpt>
      <trkpt lat="51.8692436" lon="7.3088121">
        <ele>78.4847412</ele>
        <time>2013-10-22T09:49:13Z</time>
      </trkpt>
      <trkpt lat="51.8692435" lon="7.3088125">
        <ele>77.5234375</ele>
        <time>2013-10-22T09:49:28Z</time>
      </trkpt>
      <trkpt lat="51.8692791" lon="7.3089884">
        <ele>77.5234375</ele>
        <time>2013-10-22T09:49:35Z</time>
      </trkpt>
      <trkpt lat="51.8697342" lon="7.3091476">
        <ele>77.0428467</ele>
        <time>2013-10-22T09:49:50Z</time>
      </trkpt>
      <trkpt lat="51.8700401" lon="7.3094645">
        <ele>76.5621338</ele>
        <time>2013-10-22T09:50:04Z</time>
      </trkpt>
      <trkpt lat="51.8701841" lon="7.3095668">
        <ele>77.0428467</ele>
        <time>2013-10-22T09:50:09Z</time>
      </trkpt>
      <trkpt lat="51.8702353" lon="7.3096760">
        <ele>75.6008301</ele>
        <time>2013-10-22T09:50:14Z</time>
      </trkpt>
      <trkpt lat="51.8705852" lon="7.3102313">
        <ele>75.1202393</ele>
        <time>2013-10-22T09:50:27Z</time>
      </trkpt>
      <trkpt lat="51.8706459" lon="7.3103401">
        <ele>75.1202393</ele>
        <time>2013-10-22T09:50:29Z</time>
      </trkpt>
      <trkpt lat="51.8708789" lon="7.3103625">
        <ele>74.6395264</ele>
        <time>2013-10-22T09:50:35Z</time>
      </trkpt>
      <trkpt lat="51.8713283" lon="7.3100728">
        <ele>74.6395264</ele>
        <time>2013-10-22T09:50:47Z</time>
      </trkpt>
      <trkpt lat="51.8718142" lon="7.3097494">
        <ele>75.6008301</ele>
        <time>2013-10-22T09:51:01Z</time>
      </trkpt>
      <trkpt lat="51.8720288" lon="7.3096007">
        <ele>74.1588135</ele>
        <time>2013-10-22T09:51:07Z</time>
      </trkpt>
      <trkpt lat="51.8726406" lon="7.3093029">
        <ele>74.1588135</ele>
        <time>2013-10-22T09:51:22Z</time>
      </trkpt>
      <trkpt lat="51.8730795" lon="7.3090455">
        <ele>74.6395264</ele>
        <time>2013-10-22T09:51:34Z</time>
      </trkpt>
      <trkpt lat="51.8731852" lon="7.3088932">
        <ele>73.1976318</ele>
        <time>2013-10-22T09:51:38Z</time>
      </trkpt>
      <trkpt lat="51.8729210" lon="7.3079623">
        <ele>74.6395264</ele>
        <time>2013-10-22T09:51:54Z</time>
      </trkpt>
      <trkpt lat="51.8725748" lon="7.3067252">
        <ele>74.1588135</ele>
        <time>2013-10-22T09:52:15Z</time>
      </trkpt>
      <trkpt lat="51.8722331" lon="7.3054177">
        <ele>74.6395264</ele>
        <time>2013-10-22T09:52:37Z</time>
      </trkpt>
      <trkpt lat="51.8717770" lon="7.3039942">
        <ele>75.1202393</ele>
        <time>2013-10-22T09:53:03Z</time>
      </trkpt>
      <trkpt lat="51.8714060" lon="7.3035103">
        <ele>74.6395264</ele>
        <time>2013-10-22T09:53:17Z</time>
      </trkpt>
      <trkpt lat="51.8708429" lon="7.3027688">
        <ele>76.0814209</ele>
        <time>2013-10-22T09:53:40Z</time>
      </trkpt>
      <trkpt lat="51.8701092" lon="7.3016508">
        <ele>77.5234375</ele>
        <time>2013-10-22T09:54:07Z</time>
      </trkpt>
      <trkpt lat="51.8693385" lon="7.3004384">
        <ele>76.0814209</ele>
        <time>2013-10-22T09:54:37Z</time>
      </trkpt>
      <trkpt lat="51.8686486" lon="7.2993463">
        <ele>77.0428467</ele>
        <time>2013-10-22T09:55:04Z</time>
      </trkpt>
      <trkpt lat="51.8679794" lon="7.2981844">
        <ele>78.4847412</ele>
        <time>2013-10-22T09:55:32Z</time>
      </trkpt>
      <trkpt lat="51.8672278" lon="7.2968233">
        <ele>78.9654541</ele>
        <time>2013-10-22T09:56:03Z</time>
      </trkpt>
      <trkpt lat="51.8666374" lon="7.2957369">
        <ele>78.0040283</ele>
        <time>2013-10-22T09:56:28Z</time>
      </trkpt>
      <trkpt lat="51.8660460" lon="7.2946164">
        <ele>78.9654541</ele>
        <time>2013-10-22T09:56:54Z</time>
      </trkpt>
      <trkpt lat="51.8656160" lon="7.2938017">
        <ele>79.9266357</ele>
        <time>2013-10-22T09:57:13Z</time>
      </trkpt>
      <trkpt lat="51.8652059" lon="7.2930244">
        <ele>80.8881836</ele>
        <time>2013-10-22T09:57:31Z</time>
      </trkpt>
      <trkpt lat="51.8651480" lon="7.2922232">
        <ele>80.4074707</ele>
        <time>2013-10-22T09:57:44Z</time>
      </trkpt>
      <trkpt lat="51.8650476" lon="7.2907363">
        <ele>80.4074707</ele>
        <time>2013-10-22T09:58:08Z</time>
      </trkpt>
      <trkpt lat="51.8648935" lon="7.2894901">
        <ele>81.8493652</ele>
        <time>2013-10-22T09:58:28Z</time>
      </trkpt>
      <trkpt lat="51.8647593" lon="7.2884042">
        <ele>81.8493652</ele>
        <time>2013-10-22T09:58:47Z</time>
      </trkpt>
      <trkpt lat="51.8646218" lon="7.2869247">
        <ele>82.3300781</ele>
        <time>2013-10-22T09:59:12Z</time>
      </trkpt>
      <trkpt lat="51.8645762" lon="7.2860130">
        <ele>83.2913818</ele>
        <time>2013-10-22T09:59:32Z</time>
      </trkpt>
      <trkpt lat="51.8645762" lon="7.2860130">
        <ele>82.8107910</ele>
        <time>2013-10-22T09:59:45Z</time>
      </trkpt>
      <trkpt lat="51.8645618" lon="7.2854289">
        <ele>82.8107910</ele>
        <time>2013-10-22T09:59:56Z</time>
      </trkpt>
      <trkpt lat="51.8645420" lon="7.2838657">
        <ele>85.6945801</ele>
        <time>2013-10-22T10:00:23Z</time>
      </trkpt>
      <trkpt lat="51.8645208" lon="7.2822504">
        <ele>86.6560059</ele>
        <time>2013-10-22T10:00:50Z</time>
      </trkpt>
      <trkpt lat="51.8644981" lon="7.2809114">
        <ele>87.1365967</ele>
        <time>2013-10-22T10:01:12Z</time>
      </trkpt>
      <trkpt lat="51.8644738" lon="7.2794823">
        <ele>87.6171875</ele>
        <time>2013-10-22T10:01:36Z</time>
      </trkpt>
      <trkpt lat="51.8644400" lon="7.2774862">
        <ele>88.5787354</ele>
        <time>2013-10-22T10:02:09Z</time>
      </trkpt>
      <trkpt lat="51.8644121" lon="7.2759411">
        <ele>88.5787354</ele>
        <time>2013-10-22T10:02:34Z</time>
      </trkpt>
      <trkpt lat="51.8643783" lon="7.2740841">
        <ele>89.0593262</ele>
        <time>2013-10-22T10:03:04Z</time>
      </trkpt>
      <trkpt lat="51.8643512" lon="7.2725912">
        <ele>88.5787354</ele>
        <time>2013-10-22T10:03:26Z</time>
      </trkpt>
      <trkpt lat="51.8643454" lon="7.2722546">
        <ele>88.5787354</ele>
        <time>2013-10-22T10:03:31Z</time>
      </trkpt>
      <trkpt lat="51.8643182" lon="7.2706757">
        <ele>88.5787354</ele>
        <time>2013-10-22T10:03:56Z</time>
      </trkpt>
      <trkpt lat="51.8642873" lon="7.2688819">
        <ele>88.0980225</ele>
        <time>2013-10-22T10:04:24Z</time>
      </trkpt>
      <trkpt lat="51.8642664" lon="7.2675854">
        <ele>89.0593262</ele>
        <time>2013-10-22T10:04:44Z</time>
      </trkpt>
      <trkpt lat="51.8642289" lon="7.2667650">
        <ele>89.0593262</ele>
        <time>2013-10-22T10:04:57Z</time>
      </trkpt>
      <trkpt lat="51.8639839" lon="7.2654234">
        <ele>90.5013428</ele>
        <time>2013-10-22T10:05:20Z</time>
      </trkpt>
      <trkpt lat="51.8636968" lon="7.2640881">
        <ele>91.4625244</ele>
        <time>2013-10-22T10:05:44Z</time>
      </trkpt>
      <trkpt lat="51.8631902" lon="7.2627035">
        <ele>91.9432373</ele>
        <time>2013-10-22T10:06:11Z</time>
      </trkpt>
      <trkpt lat="51.8630174" lon="7.2615029">
        <ele>92.4239502</ele>
        <time>2013-10-22T10:06:31Z</time>
      </trkpt>
      <trkpt lat="51.8628956" lon="7.2601884">
        <ele>92.9045410</ele>
        <time>2013-10-22T10:06:52Z</time>
      </trkpt>
      <trkpt lat="51.8634868" lon="7.2590472">
        <ele>91.9432373</ele>
        <time>2013-10-22T10:07:11Z</time>
      </trkpt>
      <trkpt lat="51.8640760" lon="7.2579024">
        <ele>91.4625244</ele>
        <time>2013-10-22T10:07:30Z</time>
      </trkpt>
      <trkpt lat="51.8646714" lon="7.2567376">
        <ele>91.4625244</ele>
        <time>2013-10-22T10:07:49Z</time>
      </trkpt>
      <trkpt lat="51.8654656" lon="7.2551842">
        <ele>90.5013428</ele>
        <time>2013-10-22T10:08:14Z</time>
      </trkpt>
      <trkpt lat="51.8660491" lon="7.2540427">
        <ele>89.0593262</ele>
        <time>2013-10-22T10:08:31Z</time>
      </trkpt>
      <trkpt lat="51.8667919" lon="7.2525897">
        <ele>88.0980225</ele>
        <time>2013-10-22T10:08:53Z</time>
      </trkpt>
      <trkpt lat="51.8677522" lon="7.2507239">
        <ele>86.6560059</ele>
        <time>2013-10-22T10:09:21Z</time>
      </trkpt>
      <trkpt lat="51.8679881" lon="7.2502708">
        <ele>86.6560059</ele>
        <time>2013-10-22T10:09:32Z</time>
      </trkpt>
      <trkpt lat="51.8676338" lon="7.2488780">
        <ele>86.6560059</ele>
        <time>2013-10-22T10:09:52Z</time>
      </trkpt>
      <trkpt lat="51.8672641" lon="7.2471497">
        <ele>86.6560059</ele>
        <time>2013-10-22T10:10:18Z</time>
      </trkpt>
      <trkpt lat="51.8668483" lon="7.2450141">
        <ele>86.1752930</ele>
        <time>2013-10-22T10:10:48Z</time>
      </trkpt>
      <trkpt lat="51.8664405" lon="7.2430309">
        <ele>84.7333984</ele>
        <time>2013-10-22T10:11:16Z</time>
      </trkpt>
      <trkpt lat="51.8660926" lon="7.2413386">
        <ele>84.2526855</ele>
        <time>2013-10-22T10:11:39Z</time>
      </trkpt>
      <trkpt lat="51.8659211" lon="7.2395985">
        <ele>83.2913818</ele>
        <time>2013-10-22T10:12:03Z</time>
      </trkpt>
      <trkpt lat="51.8659053" lon="7.2389508">
        <ele>82.8107910</ele>
        <time>2013-10-22T10:12:12Z</time>
      </trkpt>
      <trkpt lat="51.8658988" lon="7.2386839">
        <ele>82.8107910</ele>
        <time>2013-10-22T10:12:16Z</time>
      </trkpt>
      <trkpt lat="51.8658641" lon="7.2384845">
        <ele>83.2913818</ele>
        <time>2013-10-22T10:12:20Z</time>
      </trkpt>
      <trkpt lat="51.8662541" lon="7.2372426">
        <ele>82.3300781</ele>
        <time>2013-10-22T10:12:38Z</time>
      </trkpt>
      <trkpt lat="51.8663515" lon="7.2367231">
        <ele>81.8493652</ele>
        <time>2013-10-22T10:12:45Z</time>
      </trkpt>
      <trkpt lat="51.8665124" lon="7.2358647">
        <ele>80.8881836</ele>
        <time>2013-10-22T10:12:57Z</time>
      </trkpt>
      <trkpt lat="51.8666624" lon="7.2355101">
        <ele>81.8493652</ele>
        <time>2013-10-22T10:13:06Z</time>
      </trkpt>
      <trkpt lat="51.8667339" lon="7.2355340">
        <ele>81.3687744</ele>
        <time>2013-10-22T10:13:08Z</time>
      </trkpt>
      <trkpt lat="51.8669309" lon="7.2352115">
        <ele>80.4074707</ele>
        <time>2013-10-22T10:13:18Z</time>
      </trkpt>
      <trkpt lat="51.8672825" lon="7.2338050">
        <ele>79.9266357</ele>
        <time>2013-10-22T10:13:39Z</time>
      </trkpt>
      <trkpt lat="51.8677484" lon="7.2323543">
        <ele>78.4847412</ele>
        <time>2013-10-22T10:14:00Z</time>
      </trkpt>
      <trkpt lat="51.8681612" lon="7.2311375">
        <ele>79.4460449</ele>
        <time>2013-10-22T10:14:18Z</time>
      </trkpt>
      <trkpt lat="51.8681432" lon="7.2307504">
        <ele>78.4847412</ele>
        <time>2013-10-22T10:14:23Z</time>
      </trkpt>
      <trkpt lat="51.8680931" lon="7.2301240">
        <ele>78.0040283</ele>
        <time>2013-10-22T10:14:31Z</time>
      </trkpt>
      <trkpt lat="51.8681594" lon="7.2298318">
        <ele>77.5234375</ele>
        <time>2013-10-22T10:14:36Z</time>
      </trkpt>
      <trkpt lat="51.8683697" lon="7.2292534">
        <ele>78.4847412</ele>
        <time>2013-10-22T10:14:45Z</time>
      </trkpt>
      <trkpt lat="51.8685675" lon="7.2292914">
        <ele>78.0040283</ele>
        <time>2013-10-22T10:14:51Z</time>
      </trkpt>
      <trkpt lat="51.8691320" lon="7.2301146">
        <ele>78.9654541</ele>
        <time>2013-10-22T10:15:11Z</time>
      </trkpt>
      <trkpt lat="51.8698707" lon="7.2309505">
        <ele>80.8881836</ele>
        <time>2013-10-22T10:15:36Z</time>
      </trkpt>
      <trkpt lat="51.8705646" lon="7.2315553">
        <ele>80.8881836</ele>
        <time>2013-10-22T10:15:58Z</time>
      </trkpt>
      <trkpt lat="51.8710889" lon="7.2320125">
        <ele>82.3300781</ele>
        <time>2013-10-22T10:16:16Z</time>
      </trkpt>
      <trkpt lat="51.8712951" lon="7.2323288">
        <ele>81.8493652</ele>
        <time>2013-10-22T10:16:29Z</time>
      </trkpt>
      <trkpt lat="51.8716187" lon="7.2328837">
        <ele>83.2913818</ele>
        <time>2013-10-22T10:16:45Z</time>
      </trkpt>
      <trkpt lat="51.8720043" lon="7.2332230">
        <ele>83.7719727</ele>
        <time>2013-10-22T10:16:58Z</time>
      </trkpt>
      <trkpt lat="51.8727494" lon="7.2333245">
        <ele>84.7333984</ele>
        <time>2013-10-22T10:17:20Z</time>
      </trkpt>
      <trkpt lat="51.8727494" lon="7.2333245">
        <ele>85.2139893</ele>
        <time>2013-10-22T10:17:31Z</time>
      </trkpt>
      <trkpt lat="51.8728759" lon="7.2331785">
        <ele>84.7333984</ele>
        <time>2013-10-22T10:17:45Z</time>
      </trkpt>
      <trkpt lat="51.8730820" lon="7.2319307">
        <ele>84.2526855</ele>
        <time>2013-10-22T10:18:03Z</time>
      </trkpt>
      <trkpt lat="51.8733360" lon="7.2303936">
        <ele>82.8107910</ele>
        <time>2013-10-22T10:18:24Z</time>
      </trkpt>
      <trkpt lat="51.8736969" lon="7.2282093">
        <ele>83.2913818</ele>
        <time>2013-10-22T10:18:55Z</time>
      </trkpt>
      <trkpt lat="51.8740013" lon="7.2263661">
        <ele>80.8881836</ele>
        <time>2013-10-22T10:19:20Z</time>
      </trkpt>
      <trkpt lat="51.8742301" lon="7.2249813">
        <ele>81.3687744</ele>
        <time>2013-10-22T10:19:40Z</time>
      </trkpt>
      <trkpt lat="51.8744802" lon="7.2228844">
        <ele>80.4074707</ele>
        <time>2013-10-22T10:20:11Z</time>
      </trkpt>
      <trkpt lat="51.8744802" lon="7.2228226">
        <ele>79.9266357</ele>
        <time>2013-10-22T10:20:12Z</time>
      </trkpt>
      <trkpt lat="51.8744207" lon="7.2220964">
        <ele>78.9654541</ele>
        <time>2013-10-22T10:20:23Z</time>
      </trkpt>
      <trkpt lat="51.8743899" lon="7.2218320">
        <ele>79.9266357</ele>
        <time>2013-10-22T10:20:27Z</time>
      </trkpt>
      <trkpt lat="51.8742788" lon="7.2208771">
        <ele>79.9266357</ele>
        <time>2013-10-22T10:20:44Z</time>
      </trkpt>
      <trkpt lat="51.8742801" lon="7.2208877">
        <ele>79.9266357</ele>
        <time>2013-10-22T10:21:00Z</time>
      </trkpt>
      <trkpt lat="51.8742657" lon="7.2207642">
        <ele>78.4847412</ele>
        <time>2013-10-22T10:21:03Z</time>
      </trkpt>
      <trkpt lat="51.8741881" lon="7.2203054">
        <ele>77.5234375</ele>
        <time>2013-10-22T10:21:07Z</time>
      </trkpt>
      <trkpt lat="51.8739957" lon="7.2191674">
        <ele>77.0428467</ele>
        <time>2013-10-22T10:21:22Z</time>
      </trkpt>
      <trkpt lat="51.8737199" lon="7.2175366">
        <ele>76.5621338</ele>
        <time>2013-10-22T10:21:45Z</time>
      </trkpt>
      <trkpt lat="51.8734847" lon="7.2161456">
        <ele>75.6008301</ele>
        <time>2013-10-22T10:22:04Z</time>
      </trkpt>
      <trkpt lat="51.8732119" lon="7.2145319">
        <ele>74.1588135</ele>
        <time>2013-10-22T10:22:27Z</time>
      </trkpt>
      <trkpt lat="51.8729967" lon="7.2132597">
        <ele>73.6782227</ele>
        <time>2013-10-22T10:22:46Z</time>
      </trkpt>
      <trkpt lat="51.8727931" lon="7.2120549">
        <ele>74.6395264</ele>
        <time>2013-10-22T10:23:04Z</time>
      </trkpt>
      <trkpt lat="51.8727636" lon="7.2118807">
        <ele>74.1588135</ele>
        <time>2013-10-22T10:23:13Z</time>
      </trkpt>
      <trkpt lat="51.8726051" lon="7.2106313">
        <ele>74.1588135</ele>
        <time>2013-10-22T10:23:28Z</time>
      </trkpt>
      <trkpt lat="51.8724814" lon="7.2098037">
        <ele>72.7169189</ele>
        <time>2013-10-22T10:23:41Z</time>
      </trkpt>
      <trkpt lat="51.8723755" lon="7.2090893">
        <ele>72.2362061</ele>
        <time>2013-10-22T10:23:52Z</time>
      </trkpt>
      <trkpt lat="51.8722847" lon="7.2082883">
        <ele>71.2749023</ele>
        <time>2013-10-22T10:24:07Z</time>
      </trkpt>
      <trkpt lat="51.8722887" lon="7.2078882">
        <ele>70.3134766</ele>
        <time>2013-10-22T10:24:13Z</time>
      </trkpt>
      <trkpt lat="51.8724046" lon="7.2076671">
        <ele>70.7941895</ele>
        <time>2013-10-22T10:24:17Z</time>
      </trkpt>
      <trkpt lat="51.8727041" lon="7.2072142">
        <ele>71.2749023</ele>
        <time>2013-10-22T10:24:27Z</time>
      </trkpt>
      <trkpt lat="51.8730502" lon="7.2069156">
        <ele>72.7169189</ele>
        <time>2013-10-22T10:24:37Z</time>
      </trkpt>
      <trkpt lat="51.8735468" lon="7.2064418">
        <ele>72.7169189</ele>
        <time>2013-10-22T10:24:50Z</time>
      </trkpt>
      <trkpt lat="51.8740424" lon="7.2058254">
        <ele>71.7554932</ele>
        <time>2013-10-22T10:25:05Z</time>
      </trkpt>
      <trkpt lat="51.8742250" lon="7.2056886">
        <ele>72.2362061</ele>
        <time>2013-10-22T10:25:10Z</time>
      </trkpt>
      <trkpt lat="51.8742573" lon="7.2055757">
        <ele>71.2749023</ele>
        <time>2013-10-22T10:25:12Z</time>
      </trkpt>
      <trkpt lat="51.8747646" lon="7.2049618">
        <ele>70.7941895</ele>
        <time>2013-10-22T10:25:26Z</time>
      </trkpt>
      <trkpt lat="51.8757408" lon="7.2039081">
        <ele>69.3522949</ele>
        <time>2013-10-22T10:25:53Z</time>
      </trkpt>
      <trkpt lat="51.8763187" lon="7.2032388">
        <ele>70.3134766</ele>
        <time>2013-10-22T10:26:09Z</time>
      </trkpt>
      <trkpt lat="51.8770321" lon="7.2025279">
        <ele>71.7554932</ele>
        <time>2013-10-22T10:26:30Z</time>
      </trkpt>
      <trkpt lat="51.8769299" lon="7.2023635">
        <ele>72.2362061</ele>
        <time>2013-10-22T10:26:35Z</time>
      </trkpt>
      <trkpt lat="51.8769264" lon="7.2023535">
        <ele>70.7941895</ele>
        <time>2013-10-22T10:26:40Z</time>
      </trkpt>
      <trkpt lat="51.8769883" lon="7.2024245">
        <ele>70.7941895</ele>
        <time>2013-10-22T10:26:42Z</time>
      </trkpt>
      <trkpt lat="51.8777662" lon="7.2016170">
        <ele>70.7941895</ele>
        <time>2013-10-22T10:27:00Z</time>
      </trkpt>
      <trkpt lat="51.8787226" lon="7.2006707">
        <ele>69.8328857</ele>
        <time>2013-10-22T10:27:26Z</time>
      </trkpt>
      <trkpt lat="51.8795910" lon="7.1998619">
        <ele>69.8328857</ele>
        <time>2013-10-22T10:27:50Z</time>
      </trkpt>
      <trkpt lat="51.8797407" lon="7.1995833">
        <ele>68.8715820</ele>
        <time>2013-10-22T10:27:56Z</time>
      </trkpt>
      <trkpt lat="51.8798788" lon="7.1995840">
        <ele>69.3522949</ele>
        <time>2013-10-22T10:27:59Z</time>
      </trkpt>
      <trkpt lat="51.8805161" lon="7.1990064">
        <ele>69.3522949</ele>
        <time>2013-10-22T10:28:15Z</time>
      </trkpt>
      <trkpt lat="51.8812434" lon="7.1983120">
        <ele>69.3522949</ele>
        <time>2013-10-22T10:28:35Z</time>
      </trkpt>
      <trkpt lat="51.8812606" lon="7.1982908">
        <ele>69.3522949</ele>
        <time>2013-10-22T10:28:36Z</time>
      </trkpt>
      <trkpt lat="51.8813100" lon="7.1983900">
        <ele>70.3134766</ele>
        <time>2013-10-22T10:28:40Z</time>
      </trkpt>
      <trkpt lat="51.8814750" lon="7.1990103">
        <ele>71.2749023</ele>
        <time>2013-10-22T10:28:52Z</time>
      </trkpt>
      <trkpt lat="51.8818061" lon="7.1987572">
        <ele>70.7941895</ele>
        <time>2013-10-22T10:29:01Z</time>
      </trkpt>
      <trkpt lat="51.8821512" lon="7.1980706">
        <ele>71.7554932</ele>
        <time>2013-10-22T10:29:17Z</time>
      </trkpt>
      <trkpt lat="51.8825385" lon="7.1974709">
        <ele>70.3134766</ele>
        <time>2013-10-22T10:29:30Z</time>
      </trkpt>
      <trkpt lat="51.8828451" lon="7.1970917">
        <ele>68.8715820</ele>
        <time>2013-10-22T10:29:40Z</time>
      </trkpt>
      <trkpt lat="51.8833597" lon="7.1967375">
        <ele>69.8328857</ele>
        <time>2013-10-22T10:29:52Z</time>
      </trkpt>
      <trkpt lat="51.8838492" lon="7.1963639">
        <ele>69.8328857</ele>
        <time>2013-10-22T10:30:04Z</time>
      </trkpt>
      <trkpt lat="51.8842036" lon="7.1957726">
        <ele>70.3134766</ele>
        <time>2013-10-22T10:30:18Z</time>
      </trkpt>
      <trkpt lat="51.8848299" lon="7.1951671">
        <ele>70.7941895</ele>
        <time>2013-10-22T10:30:35Z</time>
      </trkpt>
      <trkpt lat="51.8853809" lon="7.1946751">
        <ele>71.7554932</ele>
        <time>2013-10-22T10:30:51Z</time>
      </trkpt>
      <trkpt lat="51.8862576" lon="7.1938794">
        <ele>72.2362061</ele>
        <time>2013-10-22T10:31:16Z</time>
      </trkpt>
      <trkpt lat="51.8868976" lon="7.1931802">
        <ele>71.2749023</ele>
        <time>2013-10-22T10:31:36Z</time>
      </trkpt>
      <trkpt lat="51.8876429" lon="7.1924652">
        <ele>72.2362061</ele>
        <time>2013-10-22T10:31:57Z</time>
      </trkpt>
      <trkpt lat="51.8885935" lon="7.1915613">
        <ele>72.7169189</ele>
        <time>2013-10-22T10:32:24Z</time>
      </trkpt>
      <trkpt lat="51.8893290" lon="7.1904230">
        <ele>73.1976318</ele>
        <time>2013-10-22T10:32:45Z</time>
      </trkpt>
      <trkpt lat="51.8895864" lon="7.1914530">
        <ele>73.6782227</ele>
        <time>2013-10-22T10:32:49Z</time>
      </trkpt>
      <trkpt lat="51.8895864" lon="7.1914530">
        <ele>74.6395264</ele>
        <time>2013-10-22T10:32:58Z</time>
      </trkpt>
      <trkpt lat="51.8897379" lon="7.1913111">
        <ele>74.6395264</ele>
        <time>2013-10-22T10:33:03Z</time>
      </trkpt>
      <trkpt lat="51.8903385" lon="7.1905477">
        <ele>74.1588135</ele>
        <time>2013-10-22T10:33:22Z</time>
      </trkpt>
      <trkpt lat="51.8904448" lon="7.1901226">
        <ele>74.1588135</ele>
        <time>2013-10-22T10:33:34Z</time>
      </trkpt>
      <trkpt lat="51.8913386" lon="7.1888642">
        <ele>74.1588135</ele>
        <time>2013-10-22T10:33:58Z</time>
      </trkpt>
      <trkpt lat="51.8917870" lon="7.1883285">
        <ele>74.1588135</ele>
        <time>2013-10-22T10:34:12Z</time>
      </trkpt>
      <trkpt lat="51.8922621" lon="7.1877611">
        <ele>75.1202393</ele>
        <time>2013-10-22T10:34:29Z</time>
      </trkpt>
      <trkpt lat="51.8924956" lon="7.1876503">
        <ele>74.6395264</ele>
        <time>2013-10-22T10:34:43Z</time>
      </trkpt>
      <trkpt lat="51.8925626" lon="7.1876839">
        <ele>75.6008301</ele>
        <time>2013-10-22T10:34:55Z</time>
      </trkpt>
      <trkpt lat="51.8925626" lon="7.1876839">
        <ele>75.6008301</ele>
        <time>2013-10-22T10:35:06Z</time>
      </trkpt>
      <trkpt lat="51.8925626" lon="7.1876839">
        <ele>74.6395264</ele>
        <time>2013-10-22T10:35:08Z</time>
      </trkpt>
      <trkpt lat="51.8925626" lon="7.1876839">
        <ele>74.6395264</ele>
        <time>2013-10-22T10:35:12Z</time>
      </trkpt>
    </trkseg>
  </trk>

</gpx>
